Airfield :
LOGIN :

Register | Disclaimer

   EN    FR    IT 

 










Legend :    VFR   Marginal VFR   IFR   Intensive IFR   Very Intensive IFR
Visi :
Ceiling :
>= 8 km
>= 3000ft
5 to 8 km
1000 to 3000 ft
1500m to 5 km
500 to 1000 ft
800 to 1500m
200 to 500 ft
< 800m
< 200 ft
Symbols :   Thunderstorms  Fog  Heavy snow  Heavy precipitations  Wind > 20 kt
SIGMETs :     Misc.  Thunderstorms  Icing  Turbulence  Mountain Waves  Volcanic Ashes






- Airport Elevation : 1966 ft
- IATA code : SGE


EDGS - Siegerland

CURRENT METAR :
  • 171850Z AUTO 32013KT 4200 // SCT001/// BKN004/// OVC016/// 03/03 Q1032

EXPIRED METARs :
  • 171820Z AUTO 32017KT 5000 // OVC001/// 03/03 Q1032
  • 171750Z AUTO 31015KT 0550 R31/0700U // SCT000/// OVC003/// 03/03 Q1031
  • 171720Z AUTO 30014KT 0250 R31/0325N // VV/// 03/03 Q1031
  • 171650Z 29015KT 0250 R31/0275N FG VV/// 03/03 Q1030
  • 171620Z 29015KT 0350 R31/0500D FG OVC001 02/02 Q1031

TAF TAF EDGS
Valid from the 17 at 15:00 until the 18 at 00:00 UTC


171400Z 1715/1724 29020G30KT 0100 FG OVC001
TEMPO 1715/1718 0500 DZ FG OVC002
BECMG 1716/1719 31013KT
TEMPO 1721/1724 0800 FG OVC003



MET'MAP, your aeronautical weather chart ! - Copyright ORBIFLY December 2007 - Disclaimer

ORBIFLY MET'MAP TEAM :

Programming & Development : Alexandra Zaïnal
Concept & original design : Baudouin d'Aumeries
Assistance for programming : Marc-Olivier Méhu
Technical & hardware support : Manuel Goepfert

Contact : metmap@orbifly.com




SOURCES & CREDITS :

   NOAA